Time;durP1;ratioP1;P1;durP2;ratioP2;P2;SDS_P1;SDS_P2;PMS_P1;PMS_P2;Temp;Humidity;BMP_temperature;BMP_pressure;BME280_temperature;BME280_humidity;BME280_pressure;Samples;Min_cycle;Max_cycle;Signal;HPM_P1;HPM_P2
2022/05/18 00:02:24;;;;;;;16.55;11.10;;;;;;;15.64;84.57;101841.31;5029431;28;20057;-80
2022/05/18 00:04:49;;;;;;;16.23;10.20;;;;;;;15.63;84.64;101847.44;5035136;28;20090;-80
2022/05/18 00:07:15;;;;;;;19.63;11.75;;;;;;;15.58;85.23;101843.25;5031035;28;20087;-80
2022/05/18 00:09:40;;;;;;;17.80;11.23;;;;;;;15.56;85.25;101850.28;5031529;28;20079;-80
2022/05/18 00:12:06;;;;;;;20.42;12.60;;;;;;;15.55;85.42;101853.81;5023287;28;20108;-80
2022/05/18 00:14:31;;;;;;;21.77;11.70;;;;;;;15.52;85.78;101846.00;5035158;28;20033;-80
2022/05/18 00:17:00;;;;;;;20.77;11.88;;;;;;;15.48;86.04;101847.84;5030751;28;20051;-80
2022/05/18 00:19:25;;;;;;;18.08;11.00;;;;;;;15.46;85.94;101846.19;5033832;28;20021;-80
2022/05/18 00:21:51;;;;;;;18.77;11.10;;;;;;;15.40;85.81;101852.44;5033371;28;20032;-80
2022/05/18 00:24:16;;;;;;;15.20;10.57;;;;;;;15.33;85.69;101841.28;5030573;28;20025;-80
2022/05/18 00:26:41;;;;;;;17.50;11.10;;;;;;;15.31;84.80;101855.28;5030197;28;20025;-80
2022/05/18 00:29:06;;;;;;;19.05;11.32;;;;;;;15.28;86.00;101858.00;5032392;28;20747;-80
2022/05/18 00:31:32;;;;;;;17.42;11.45;;;;;;;15.27;86.32;101862.38;5032051;28;20029;-80
2022/05/18 00:33:57;;;;;;;17.93;11.20;;;;;;;15.23;86.43;101857.25;5031984;28;20330;-80
2022/05/18 00:36:22;;;;;;;17.70;11.77;;;;;;;15.20;86.27;101855.59;5031946;28;20306;-80
2022/05/18 00:38:47;;;;;;;19.58;12.10;;;;;;;15.16;86.36;101853.94;5032242;28;20666;-80
2022/05/18 00:41:13;;;;;;;22.57;12.10;;;;;;;15.13;86.78;101855.78;5031912;28;20672;-80
2022/05/18 00:43:41;;;;;;;18.60;11.88;;;;;;;15.09;87.11;101856.75;5031766;28;20260;-80
2022/05/18 00:46:10;;;;;;;21.00;12.25;;;;;;;15.06;86.89;101849.00;5030910;28;20087;-80
2022/05/18 00:48:37;;;;;;;21.92;13.13;;;;;;;15.03;87.06;101857.78;5030355;28;20108;-80
2022/05/18 00:51:05;;;;;;;19.55;12.27;;;;;;;15.01;87.17;101852.56;5030512;28;20033;-80
2022/05/18 00:53:56;;;;;;;21.98;12.30;;;;;;;15.01;86.20;101856.97;5034305;28;20039;-80
2022/05/18 00:56:29;;;;;;;17.48;11.68;;;;;;;14.98;86.93;101851.81;5021599;28;20337;-80
2022/05/18 00:59:08;;;;;;;19.70;12.50;;;;;;;14.96;86.93;101853.59;5028911;28;20017;-80
2022/05/18 01:01:34;;;;;;;18.40;11.93;;;;;;;14.94;87.04;101858.03;5031635;28;20025;-80
2022/05/18 01:04:01;;;;;;;16.17;12.10;;;;;;;14.91;87.00;101858.09;5030743;28;20059;-80
2022/05/18 01:06:38;;;;;;;20.98;12.57;;;;;;;14.90;86.94;101856.38;5031439;28;20022;-80
2022/05/18 01:09:09;;;;;;;19.88;13.05;;;;;;;14.90;87.56;101858.97;5024835;28;20124;-80
2022/05/18 01:11:39;;;;;;;19.45;13.20;;;;;;;14.88;87.38;101864.22;5031531;28;20460;-80
2022/05/18 01:14:32;;;;;;;21.05;12.40;;;;;;;14.86;87.70;101855.59;5041285;28;20407;-80
2022/05/18 01:16:58;;;;;;;18.60;12.80;;;;;;;14.84;87.84;101859.13;5020729;28;20072;-80
2022/05/18 01:19:44;;;;;;;19.77;12.93;;;;;;;14.82;87.22;101855.69;5030963;28;20036;-80
2022/05/18 01:22:23;;;;;;;19.63;13.48;;;;;;;14.78;87.75;101851.47;5037048;28;20050;-80
2022/05/18 01:25:15;;;;;;;18.13;12.75;;;;;;;14.79;87.67;101859.25;5026220;28;20029;-80
2022/05/18 01:27:40;;;;;;;18.77;12.70;;;;;;;14.75;88.07;101855.00;5030842;28;20443;-80
2022/05/18 01:30:07;;;;;;;20.85;13.50;;;;;;;14.74;88.48;101849.84;5031274;28;20521;-80
2022/05/18 01:32:41;;;;;;;21.52;13.40;;;;;;;14.70;87.98;101848.19;5029422;28;20029;-80
2022/05/18 01:35:08;;;;;;;22.15;13.63;;;;;;;14.69;88.64;101854.28;5028985;28;20074;-80
2022/05/18 01:37:34;;;;;;;21.40;13.80;;;;;;;14.68;88.89;101852.56;5030664;28;20303;-80
2022/05/18 01:40:03;;;;;;;20.88;13.13;;;;;;;14.68;88.37;101855.19;5030810;28;20513;-81
2022/05/18 01:42:41;;;;;;;23.10;13.25;;;;;;;14.64;88.09;101859.63;5030176;28;20025;-80
2022/05/18 01:45:07;;;;;;;27.27;13.20;;;;;;;14.60;88.31;101856.22;5038063;28;20041;-80
2022/05/18 01:47:37;;;;;;;36.08;14.05;;;;;;;14.56;88.59;101859.81;5029451;28;20040;-80
2022/05/18 01:50:07;;;;;;;27.65;13.48;;;;;;;14.55;88.67;101862.44;5030360;28;20506;-81
2022/05/18 01:52:35;;;;;;;30.88;14.27;;;;;;;14.53;88.57;101861.66;5030477;28;20029;-81
2022/05/18 01:55:01;;;;;;;25.45;12.60;;;;;;;14.47;88.33;101860.03;5028709;28;20078;-80
2022/05/18 01:57:26;;;;;;;20.88;12.75;;;;;;;14.45;88.79;101859.22;5028837;28;20025;-81
2022/05/18 01:59:52;;;;;;;21.65;13.10;;;;;;;14.42;88.50;101851.44;5029158;28;20108;-81
2022/05/18 02:02:17;;;;;;;18.83;12.13;;;;;;;14.39;88.68;101846.31;5028388;28;20114;-81
2022/05/18 02:04:43;;;;;;;24.13;12.73;;;;;;;14.38;88.20;101854.19;5028951;28;20551;-80
2022/05/18 02:07:09;;;;;;;22.35;12.88;;;;;;;14.37;88.72;101852.44;5026921;28;20100;-80
2022/05/18 02:09:34;;;;;;;26.65;13.63;;;;;;;14.35;88.55;101860.28;5030156;28;20488;-80
2022/05/18 02:12:00;;;;;;;20.60;13.23;;;;;;;14.32;88.71;101859.50;5032547;28;20056;-81
2022/05/18 02:14:26;;;;;;;20.52;12.70;;;;;;;14.31;89.11;101863.00;5038996;28;20260;-80
2022/05/18 02:16:52;;;;;;;20.17;12.27;;;;;;;14.27;88.74;101853.50;5029156;28;20037;-80
2022/05/18 02:19:17;;;;;;;22.42;12.63;;;;;;;14.26;89.20;101855.28;5031245;28;20044;-80
2022/05/18 02:21:43;;;;;;;20.48;12.07;;;;;;;14.20;89.14;101858.00;5029107;28;20029;-81
2022/05/18 02:24:08;;;;;;;26.00;13.50;;;;;;;14.23;89.63;101855.34;5029307;28;20444;-80
2022/05/18 02:26:33;;;;;;;18.33;12.30;;;;;;;14.20;89.02;101856.25;5030048;28;20021;-81
2022/05/18 02:28:59;;;;;;;23.57;13.17;;;;;;;14.18;89.45;101858.06;5029585;28;20033;-81
2022/05/18 02:31:24;;;;;;;22.63;13.13;;;;;;;14.15;89.37;101855.50;5028954;28;20288;-80
2022/05/18 02:33:50;;;;;;;18.60;13.05;;;;;;;14.16;89.39;101853.78;5028231;28;20040;-80
2022/05/18 02:36:16;;;;;;;20.30;13.03;;;;;;;14.09;89.12;101846.97;5038367;28;20051;-81
2022/05/18 02:38:43;;;;;;;20.17;12.38;;;;;;;14.09;89.70;101842.63;5031943;28;20284;-81
2022/05/18 02:41:09;;;;;;;23.85;13.57;;;;;;;14.04;89.66;101839.25;5037242;28;20025;-80
2022/05/18 02:43:38;;;;;;;21.20;12.90;;;;;;;14.01;89.43;101834.09;5031581;28;20036;-80
2022/05/18 02:46:04;;;;;;;19.75;12.20;;;;;;;14.03;89.41;101841.91;5029536;28;20019;-80
2022/05/18 02:48:29;;;;;;;20.58;12.00;;;;;;;14.00;89.23;101847.16;5029014;28;20029;-85
2022/05/18 02:50:55;;;;;;;19.60;12.40;;;;;;;14.01;89.63;101848.88;5029065;28;20032;-86
2022/05/18 02:53:21;;;;;;;20.23;12.40;;;;;;;13.96;89.32;101843.78;5036171;28;20376;-86
2022/05/18 02:58:30;;;;;;;19.98;12.15;;;;;;;13.99;89.45;101848.91;5025367;28;20045;-86
2022/05/18 03:00:56;;;;;;;21.02;12.57;;;;;;;13.96;89.37;101842.91;5039158;28;20030;-86
2022/05/18 03:03:21;;;;;;;20.95;12.65;;;;;;;13.97;89.74;101850.72;5027158;28;20457;-86
2022/05/18 03:05:46;;;;;;;20.45;12.95;;;;;;;13.95;89.75;101852.50;5029319;28;20029;-86
2022/05/18 03:08:13;;;;;;;19.42;12.95;;;;;;;13.93;90.09;101856.88;5031781;28;20124;-86
2022/05/18 03:10:38;;;;;;;18.83;12.55;;;;;;;13.94;90.07;101847.31;5031840;28;20021;-86
2022/05/18 03:13:03;;;;;;;22.47;13.63;;;;;;;13.95;90.28;101857.69;5034068;28;20034;-86
2022/05/18 03:15:28;;;;;;;19.57;13.37;;;;;;;13.95;90.61;101852.50;5029065;28;20323;-86
2022/05/18 03:17:54;;;;;;;18.97;12.40;;;;;;;13.95;89.95;101859.44;5033033;28;20302;-86
2022/05/18 03:25:47;;;;;;;19.98;13.00;;;;;;;14.04;90.86;101872.28;5028133;28;20128;-80
2022/05/18 03:28:13;;;;;;;23.27;13.17;;;;;;;14.00;90.25;101871.47;5041041;28;20157;-80
2022/05/18 03:30:38;;;;;;;20.58;13.05;;;;;;;14.00;90.32;101881.06;5028826;28;20794;-80
2022/05/18 03:33:03;;;;;;;20.50;13.73;;;;;;;13.96;90.47;101871.59;5032128;28;20030;-80
2022/05/18 03:35:29;;;;;;;23.52;15.05;;;;;;;13.97;90.58;101874.19;5027168;28;20654;-80
2022/05/18 03:37:54;;;;;;;22.10;13.82;;;;;;;13.98;90.79;101880.25;5033256;28;20153;-80
2022/05/18 03:40:20;;;;;;;20.98;13.70;;;;;;;13.99;91.22;101882.81;5029993;28;20029;-80
2022/05/18 03:42:45;;;;;;;22.05;14.25;;;;;;;13.99;91.23;101881.97;5027761;28;20435;-80
2022/05/18 03:45:11;;;;;;;22.27;13.77;;;;;;;13.97;90.84;101884.59;5033611;28;20057;-80
2022/05/18 03:47:36;;;;;;;23.65;14.13;;;;;;;13.98;91.13;101894.16;5032646;28;20287;-81
2022/05/18 03:50:01;;;;;;;21.87;13.90;;;;;;;14.02;91.04;101893.19;5033316;28;20071;-86
2022/05/18 03:52:27;;;;;;;21.60;13.68;;;;;;;14.03;91.62;101883.59;5030714;28;21103;-86
2022/05/18 03:54:52;;;;;;;22.38;13.75;;;;;;;14.10;91.48;101893.88;5031977;28;20021;-86
2022/05/18 03:57:18;;;;;;;24.17;14.20;;;;;;;14.15;91.55;101891.16;5036205;28;20112;-86
2022/05/18 03:59:43;;;;;;;22.38;13.70;;;;;;;14.15;91.15;101891.16;5034578;28;20359;-86
2022/05/18 04:02:08;;;;;;;25.43;14.30;;;;;;;14.19;91.06;101893.66;5042396;28;20045;-86
2022/05/18 04:04:34;;;;;;;22.85;13.93;;;;;;;14.22;91.41;101890.13;5034670;28;20288;-85
2022/05/18 04:06:59;;;;;;;21.67;13.82;;;;;;;14.19;90.84;101891.06;5033138;28;20025;-86
2022/05/18 04:09:24;;;;;;;24.27;14.60;;;;;;;14.23;91.51;101895.31;5032480;28;20033;-86
2022/05/18 04:11:49;;;;;;;22.00;14.07;;;;;;;14.26;91.29;101896.16;5041538;28;20319;-86
2022/05/18 04:14:15;;;;;;;24.50;14.30;;;;;;;14.30;90.66;101905.63;5036521;28;20288;-86
2022/05/18 04:16:42;;;;;;;25.67;14.15;;;;;;;14.35;91.35;101896.78;5035461;28;20916;-87
2022/05/18 04:19:07;;;;;;;22.38;13.90;;;;;;;14.36;90.04;101900.25;5036772;28;20021;-81
2022/05/18 04:21:33;;;;;;;22.73;14.00;;;;;;;14.37;91.50;101897.63;5031614;28;20027;-81
2022/05/18 04:23:58;;;;;;;25.67;15.05;;;;;;;14.43;91.09;101894.06;5030748;28;20113;-81
2022/05/18 04:26:23;;;;;;;26.80;16.23;;;;;;;14.50;91.46;101899.09;5032106;28;20538;-81
2022/05/18 04:28:49;;;;;;;29.07;16.80;;;;;;;14.58;92.09;101896.31;5030617;28;20108;-81
2022/05/18 04:31:14;;;;;;;25.60;15.80;;;;;;;14.66;92.18;101896.13;5030358;28;20295;-81
2022/05/18 04:33:39;;;;;;;27.63;15.97;;;;;;;14.80;92.57;101897.53;5031052;28;20307;-81
2022/05/18 04:36:05;;;;;;;26.87;16.07;;;;;;;14.90;92.36;101906.84;5031816;28;20308;-81
2022/05/18 04:38:32;;;;;;;32.25;16.23;;;;;;;15.00;90.92;101903.13;5032286;28;20813;-81
2022/05/18 04:40:57;;;;;;;26.50;16.58;;;;;;;15.17;92.21;101900.06;5042041;28;20064;-81
2022/05/18 04:43:24;;;;;;;26.52;15.57;;;;;;;15.32;91.53;101910.13;5041007;28;20336;-81
2022/05/18 04:45:51;;;;;;;25.67;16.05;;;;;;;15.51;92.66;101909.63;5034134;28;20105;-81
2022/05/18 04:48:18;;;;;;;26.80;16.73;;;;;;;15.64;91.97;101905.78;5030186;28;20108;-86
2022/05/18 04:50:45;;;;;;;26.90;16.65;;;;;;;15.80;92.57;101907.97;5030138;28;20369;-87
2022/05/18 04:53:10;;;;;;;25.30;15.98;;;;;;;15.95;91.36;101905.81;5035872;28;20044;-87
2022/05/18 04:55:36;;;;;;;32.80;17.33;;;;;;;16.12;89.53;101908.78;5030643;28;20037;-87
2022/05/18 04:58:03;;;;;;;27.15;16.85;;;;;;;16.34;91.11;101903.75;5038410;28;20033;-87
2022/05/18 05:00:29;;;;;;;28.23;16.55;;;;;;;16.50;91.45;101915.47;5045221;28;20056;-86
2022/05/18 05:02:57;;;;;;;28.52;17.25;;;;;;;16.62;87.75;101914.25;5032398;28;20052;-87
2022/05/18 05:05:25;;;;;;;25.15;16.00;;;;;;;16.78;86.93;101926.81;5031753;28;20025;-86
2022/05/18 05:07:51;;;;;;;26.33;16.05;;;;;;;16.89;89.24;101931.72;5035308;28;20052;-87
2022/05/18 05:10:17;;;;;;;28.48;16.67;;;;;;;16.96;88.33;101941.09;5033244;28;20064;-88
2022/05/18 05:12:42;;;;;;;24.95;15.75;;;;;;;16.98;88.02;101939.28;5043220;28;20016;-87
2022/05/18 05:15:09;;;;;;;25.38;15.57;;;;;;;16.99;86.40;101946.19;5040824;28;20033;-87
2022/05/18 05:17:34;;;;;;;22.80;15.35;;;;;;;17.01;87.75;101946.16;5038493;28;20029;-87
2022/05/18 05:19:59;;;;;;;23.17;15.20;;;;;;;17.00;86.45;101947.91;5028498;28;20033;-81
2022/05/18 05:22:26;;;;;;;24.97;15.03;;;;;;;17.01;87.68;101949.63;5032611;28;20275;-81
2022/05/18 05:24:51;;;;;;;23.27;15.45;;;;;;;17.07;88.59;101946.81;5031448;28;20268;-81
2022/05/18 05:27:16;;;;;;;24.15;15.88;;;;;;;17.37;89.13;101940.56;5039280;28;20096;-81
2022/05/18 05:29:42;;;;;;;23.90;15.13;;;;;;;17.77;86.67;101936.56;5031039;28;20100;-82
2022/05/18 05:32:08;;;;;;;23.13;15.10;;;;;;;18.10;83.70;101951.06;5028500;28;20026;-81
2022/05/18 05:34:34;;;;;;;24.35;15.15;;;;;;;18.40;83.40;101954.31;5021446;28;20096;-82
2022/05/18 05:37:00;;;;;;;23.90;14.57;;;;;;;18.70;83.28;101940.91;5028208;28;20026;-82
2022/05/18 05:39:26;;;;;;;21.00;13.85;;;;;;;18.99;78.12;101942.34;5036745;28;20384;-82
2022/05/18 05:41:51;;;;;;;20.67;13.90;;;;;;;19.25;78.91;101939.50;5029684;28;20448;-82
2022/05/18 05:44:16;;;;;;;20.17;13.33;;;;;;;19.48;78.49;101951.69;5034692;28;20318;-82
2022/05/18 05:46:41;;;;;;;21.00;13.27;;;;;;;19.57;78.19;101952.19;5031019;28;20036;-82
2022/05/18 05:49:07;;;;;;;18.70;12.90;;;;;;;19.61;73.71;101956.38;5026122;28;20029;-87
2022/05/18 05:51:32;;;;;;;18.13;11.87;;;;;;;19.61;76.47;101952.88;5035475;28;20034;-87
2022/05/18 05:53:57;;;;;;;18.73;11.90;;;;;;;19.63;75.99;101951.03;5032191;28;20755;-87
2022/05/18 05:56:22;;;;;;;20.57;12.43;;;;;;;19.60;78.49;101957.28;5028603;28;20036;-88
2022/05/18 05:58:49;;;;;;;19.90;11.75;;;;;;;19.58;73.95;101967.00;5040043;28;20354;-88
2022/05/18 06:01:16;;;;;;;15.93;12.32;;;;;;;19.55;77.86;101966.31;5027816;28;20032;-88
2022/05/18 06:03:43;;;;;;;17.63;12.02;;;;;;;19.57;76.77;101970.59;5036622;28;20060;-87
2022/05/18 06:06:10;;;;;;;18.52;11.48;;;;;;;19.66;72.56;101967.53;5031198;28;20025;-86
2022/05/18 06:08:35;;;;;;;14.88;10.98;;;;;;;19.74;77.31;101967.19;5037125;28;20029;-87
2022/05/18 06:11:02;;;;;;;16.10;10.88;;;;;;;19.90;77.67;101972.66;5045285;28;20029;-87
2022/05/18 06:13:28;;;;;;;15.68;10.68;;;;;;;20.08;75.56;101966.56;5040599;28;20033;-87
2022/05/18 06:15:54;;;;;;;14.32;10.60;;;;;;;20.30;73.92;101969.94;5017459;28;20126;-87
2022/05/18 06:18:19;;;;;;;15.90;10.35;;;;;;;20.51;71.67;101981.28;5037582;28;20517;-83
2022/05/18 06:20:47;;;;;;;19.17;11.30;;;;;;;20.63;70.54;101983.31;5037350;28;20036;-83
2022/05/18 06:23:13;;;;;;;15.80;11.15;;;;;;;20.74;70.46;101985.47;5028248;28;20298;-83
2022/05/18 06:25:38;;;;;;;21.80;12.38;;;;;;;20.80;69.00;101983.38;5028713;28;20064;-83
2022/05/18 06:28:05;;;;;;;18.90;12.27;;;;;;;20.91;70.26;101982.84;5029845;28;20053;-83
2022/05/18 06:30:31;;;;;;;20.83;13.05;;;;;;;20.95;70.98;101989.66;5030234;28;20037;-83
2022/05/18 06:32:56;;;;;;;18.83;12.18;;;;;;;21.03;70.05;101990.16;5026668;28;20171;-83
2022/05/18 06:35:22;;;;;;;20.23;13.02;;;;;;;20.99;70.89;101990.41;5020563;28;20049;-83
2022/05/18 06:37:48;;;;;;;20.63;12.93;;;;;;;20.98;71.63;101994.81;5034017;28;20048;-83
2022/05/18 06:40:14;;;;;;;18.88;14.10;;;;;;;20.99;68.68;101995.66;5036158;28;20053;-83
2022/05/18 06:42:40;;;;;;;19.67;13.07;;;;;;;20.97;69.91;102003.66;5028787;28;20064;-83
2022/05/18 06:45:08;;;;;;;20.30;13.93;;;;;;;20.96;68.19;102003.72;5033330;28;20028;-83
2022/05/18 06:47:34;;;;;;;18.92;13.02;;;;;;;20.97;69.06;102008.91;5029428;28;20108;-83
2022/05/18 06:50:00;;;;;;;16.92;12.43;;;;;;;20.99;66.79;101998.31;5027787;28;20218;-83
2022/05/18 06:52:25;;;;;;;19.65;12.10;;;;;;;21.04;68.38;102009.47;5026205;28;20040;-83
2022/05/18 06:54:51;;;;;;;19.23;11.75;;;;;;;21.07;68.11;102017.25;5029816;28;20067;-83
2022/05/18 06:57:16;;;;;;;17.85;11.73;;;;;;;21.10;69.35;102009.16;5029305;28;20025;-83
2022/05/18 06:59:42;;;;;;;16.35;12.05;;;;;;;21.17;70.53;102014.09;5029735;28;20061;-83
2022/05/18 07:02:07;;;;;;;17.63;11.00;;;;;;;21.31;69.66;102023.97;5028464;28;20385;-83
2022/05/18 07:04:33;;;;;;;19.70;11.63;;;;;;;21.45;70.28;102024.13;5025949;28;20049;-82
2022/05/18 07:07:00;;;;;;;16.55;10.95;;;;;;;21.56;70.81;102013.88;5029234;28;20067;-82
2022/05/18 07:09:27;;;;;;;20.63;10.10;;;;;;;21.65;68.91;102018.69;5028289;28;20029;-82
2022/05/18 07:11:52;;;;;;;16.42;10.60;;;;;;;21.77;68.30;102024.31;5025414;28;20057;-82
2022/05/18 07:14:19;;;;;;;17.50;9.35;;;;;;;21.78;64.35;102034.75;5034712;28;20108;-82
2022/05/18 07:16:46;;;;;;;15.13;9.05;;;;;;;21.82;60.85;102030.19;5028378;28;20041;-82
2022/05/18 07:19:12;;;;;;;14.48;9.07;;;;;;;21.81;61.03;102034.63;5037298;28;20406;-87
2022/05/18 07:21:37;;;;;;;16.95;9.60;;;;;;;21.78;60.08;102034.75;5028901;28;20456;-87
2022/05/18 07:24:03;;;;;;;14.90;9.45;;;;;;;21.78;60.14;102036.53;5029285;28;20519;-88
2022/05/18 07:26:29;;;;;;;19.30;9.27;;;;;;;21.77;63.67;102048.88;5028943;28;20484;-88
2022/05/18 07:28:56;;;;;;;17.52;9.77;;;;;;;21.98;60.40;102050.44;5025483;28;20056;-86
2022/05/18 07:31:21;;;;;;;16.80;10.18;;;;;;;22.27;59.79;102043.66;5035387;28;20548;-88
2022/05/18 07:33:47;;;;;;;20.77;9.90;;;;;;;22.60;60.84;102050.69;5029801;28;20034;-88
2022/05/18 07:36:14;;;;;;;20.63;12.82;;;;;;;23.56;56.79;102046.97;5029273;28;20024;-88
2022/05/18 07:38:40;;;;;;;24.45;12.48;;;;;;;24.54;52.87;102047.19;5027658;28;20029;-89
2022/05/18 07:41:07;;;;;;;23.92;13.63;;;;;;;25.36;50.72;102044.50;5036422;28;20055;-89
2022/05/18 07:43:33;;;;;;;27.92;13.57;;;;;;;26.07;49.81;102051.19;5034837;28;20073;-88
2022/05/18 07:45:58;;;;;;;27.63;15.00;;;;;;;26.69;49.36;102046.75;5021359;28;20164;-89
2022/05/18 07:48:24;;;;;;;23.20;13.20;;;;;;;26.85;48.58;102047.34;5028658;28;20018;-83
2022/05/18 07:50:50;;;;;;;21.42;13.30;;;;;;;26.95;48.43;102040.44;5031828;28;20044;-83
2022/05/18 07:53:15;;;;;;;22.27;12.38;;;;;;;27.50;47.54;102042.47;5031102;28;20380;-83
2022/05/18 07:55:41;;;;;;;19.98;12.95;;;;;;;27.87;45.05;102050.34;5033267;28;20079;-83
2022/05/18 07:58:12;;;;;;;19.67;12.23;;;;;;;28.22;46.30;102053.81;5032959;28;20033;-83
2022/05/18 08:00:38;;;;;;;15.43;11.15;;;;;;;28.13;44.69;102053.63;5038754;28;20376;-83
2022/05/18 08:03:03;;;;;;;16.00;11.30;;;;;;;28.23;46.07;102054.66;5032858;28;20045;-83
2022/05/18 08:05:30;;;;;;;15.55;10.05;;;;;;;28.71;46.44;102054.38;5022654;28;20072;-83
2022/05/18 08:07:56;;;;;;;16.17;9.77;;;;;;;29.46;44.09;102055.28;5036653;28;20456;-83
2022/05/18 08:15:50;;;;;;;14.53;8.70;;;;;;;29.95;42.98;102053.81;5030158;28;20283;-83
2022/05/18 08:18:16;;;;;;;15.15;8.95;;;;;;;29.74;42.61;102062.66;5027246;28;20782;-83
2022/05/18 08:20:45;;;;;;;15.80;9.40;;;;;;;29.11;42.80;102066.19;5029096;28;20037;-83
2022/05/18 08:23:12;;;;;;;12.40;8.25;;;;;;;28.55;44.99;102062.75;5029093;28;20045;-83
2022/05/18 08:25:37;;;;;;;14.00;8.70;;;;;;;28.12;45.49;102052.78;5029603;28;20036;-83
2022/05/18 08:28:03;;;;;;;12.97;9.27;;;;;;;27.62;46.85;102055.88;5030950;28;20021;-83
2022/05/18 08:30:30;;;;;;;12.93;8.48;;;;;;;27.35;48.66;102048.97;5032538;28;20697;-83
2022/05/18 08:33:00;;;;;;;12.50;8.18;;;;;;;27.61;49.75;102054.16;5032358;28;20021;-83
2022/05/18 08:35:27;;;;;;;12.63;7.28;;;;;;;28.11;48.49;102059.13;5030940;28;20025;-83
2022/05/18 08:37:53;;;;;;;14.77;8.10;;;;;;;28.41;45.95;102055.00;5032262;28;20018;-83
2022/05/18 08:40:35;;;;;;;14.73;8.27;;;;;;;28.69;48.59;102055.34;5032209;28;20053;-84
2022/05/18 08:43:05;;;;;;;14.18;8.20;;;;;;;28.78;46.76;102056.47;5039351;28;20034;-83
2022/05/18 08:45:34;;;;;;;14.45;8.60;;;;;;;28.81;45.57;102058.88;5031174;28;20034;-83
2022/05/18 08:48:36;;;;;;;11.35;8.43;;;;;;;29.04;47.44;102065.84;5031907;28;20021;-83
2022/05/18 08:51:06;;;;;;;12.40;7.57;;;;;;;28.93;44.54;102063.19;5032173;28;20025;-83
2022/05/18 08:53:49;;;;;;;15.40;9.00;;;;;;;28.89;44.06;102068.94;5031956;28;20029;-83
2022/05/18 08:56:38;;;;;;;14.57;8.73;;;;;;;28.98;45.06;102061.03;5032080;28;20459;-89
2022/05/18 08:59:05;;;;;;;13.95;8.98;;;;;;;28.90;45.19;102063.47;5032267;28;20392;-90
2022/05/18 09:01:40;;;;;;;16.90;9.48;;;;;;;28.89;46.29;102067.09;5030880;28;20160;-89
2022/05/18 09:04:11;;;;;;;14.70;8.88;;;;;;;28.83;45.55;102061.41;5047350;28;20041;-89
2022/05/18 09:07:08;;;;;;;12.90;8.25;;;;;;;29.04;45.96;102062.34;5032229;28;20021;-89
2022/05/18 09:12:40;;;;;;;14.13;8.82;;;;;;;29.38;44.43;102076.44;5023133;28;20047;-89
2022/05/18 09:15:07;;;;;;;18.38;8.70;;;;;;;29.39;44.01;102072.81;5032340;28;20484;-89
2022/05/18 09:17:40;;;;;;;11.05;7.80;;;;;;;29.39;44.68;102070.13;5031952;28;20029;-89
2022/05/18 09:20:13;;;;;;;17.03;8.63;;;;;;;29.45;44.63;102074.97;5031961;28;20025;-90
2022/05/18 09:23:08;;;;;;;14.15;9.00;;;;;;;29.63;45.83;102072.53;5047389;28;20033;-89
2022/05/18 09:25:54;;;;;;;14.27;9.60;;;;;;;29.66;44.85;102067.81;5031902;28;20071;-90
2022/05/18 09:28:40;;;;;;;12.98;8.23;;;;;;;29.59;44.29;102061.28;5046866;28;20025;-84
2022/05/18 09:31:17;;;;;;;15.23;9.35;;;;;;;29.41;42.46;102065.50;5031300;28;20025;-83
2022/05/18 09:34:06;;;;;;;14.30;8.93;;;;;;;29.29;43.57;102059.31;5031266;28;20028;-84
2022/05/18 09:36:34;;;;;;;12.82;8.10;;;;;;;29.38;43.34;102069.28;5046333;28;20097;-84
2022/05/18 09:39:13;;;;;;;13.60;9.05;;;;;;;29.37;43.33;102066.72;5030432;28;20573;-84
2022/05/18 09:41:44;;;;;;;12.73;8.65;;;;;;;29.30;43.97;102066.38;5031257;28;20029;-84
2022/05/18 09:44:18;;;;;;;13.65;8.80;;;;;;;28.86;44.81;102067.38;5031077;28;20108;-83
2022/05/18 09:46:45;;;;;;;20.15;12.55;;;;;;;28.80;43.14;102069.66;5031111;28;20041;-84
2022/05/18 09:49:19;;;;;;;15.48;9.93;;;;;;;28.65;45.15;102071.75;5031170;28;20499;-84
2022/05/18 09:51:45;;;;;;;;;;;;;;;28.90;46.28;102074.16;5018610;28;20029;-83
2022/05/18 09:54:10;;;;;;;16.42;7.80;;;;;;;28.61;44.64;102070.28;5030892;28;19909;-83
2022/05/18 09:56:44;;;;;;;11.98;7.47;;;;;;;28.47;44.48;102075.88;5030887;28;20597;-83
2022/05/18 09:59:15;;;;;;;11.93;6.63;;;;;;;28.69;45.84;102071.38;5030610;28;20026;-84
2022/05/18 10:07:28;;;;;;;15.35;8.45;;;;;;;28.46;45.07;102071.50;5030775;28;20044;-83
2022/05/18 10:10:10;;;;;;;13.63;9.07;;;;;;;28.36;46.18;102074.06;5034725;28;20025;-83
2022/05/18 10:12:48;;;;;;;16.13;10.10;;;;;;;28.33;44.66;102081.44;5030006;28;20562;-83
2022/05/18 10:15:25;;;;;;;16.50;9.38;;;;;;;28.09;46.38;102076.19;5030286;28;20036;-83
2022/05/18 10:17:53;;;;;;;12.27;8.30;;;;;;;27.92;47.44;102078.34;5020265;28;20468;-83
2022/05/18 10:20:25;;;;;;;14.52;8.40;;;;;;;27.79;48.82;102068.75;5030118;28;20431;-83
2022/05/18 10:22:51;;;;;;;11.70;6.97;;;;;;;27.95;48.69;102065.75;5030047;28;20052;-83
2022/05/18 10:25:32;;;;;;;10.35;6.65;;;;;;;28.18;48.55;102060.34;5030221;28;20084;-83
2022/05/18 10:27:58;;;;;;;11.45;8.40;;;;;;;28.33;45.08;102068.09;5030344;28;20025;-83
2022/05/18 10:30:31;;;;;;;10.10;7.40;;;;;;;28.22;45.23;102063.63;5030397;28;20035;-83
2022/05/18 10:33:07;;;;;;;9.98;6.72;;;;;;;28.27;46.65;102064.97;5028758;28;20476;-83
2022/05/18 10:35:35;;;;;;;11.00;5.93;;;;;;;28.28;46.54;102064.00;5030146;28;20224;-83
2022/05/18 10:38:02;;;;;;;12.35;5.85;;;;;;;28.47;45.53;102058.03;5028679;28;20484;-83
2022/05/18 10:40:27;;;;;;;10.35;5.80;;;;;;;28.57;45.03;102072.34;5029933;28;20083;-83
2022/05/18 10:42:56;;;;;;;10.43;6.22;;;;;;;28.50;44.09;102067.63;5028571;28;20026;-85
2022/05/18 10:45:31;;;;;;;11.77;5.93;;;;;;;28.58;43.76;102066.06;5030226;28;20536;-83
2022/05/18 10:48:04;;;;;;;9.50;6.00;;;;;;;28.52;43.13;102063.88;5029340;28;20024;-83
2022/05/18 10:50:34;;;;;;;9.10;5.30;;;;;;;28.41;44.91;102057.69;5028692;28;20029;-83
2022/05/18 10:53:11;;;;;;;7.90;5.00;;;;;;;28.30;45.34;102055.88;5029764;28;20029;-83
2022/05/18 10:56:03;;;;;;;7.22;5.18;;;;;;;28.03;44.09;102050.00;5029793;28;20375;-83
2022/05/18 10:59:10;;;;;;;8.32;5.00;;;;;;;28.03;46.28;102045.53;5029218;28;20495;-83
2022/05/18 11:01:46;;;;;;;7.57;4.55;;;;;;;27.90;46.69;102050.97;5029461;28;20533;-83
2022/05/18 11:04:45;;;;;;;7.75;4.15;;;;;;;28.09;45.15;102042.38;5029466;28;20037;-83
2022/05/18 11:07:10;;;;;;;6.40;4.22;;;;;;;28.07;43.37;102041.66;5029589;28;20045;-83
2022/05/18 11:09:37;;;;;;;7.43;4.55;;;;;;;28.25;43.76;102047.41;5036869;28;20056;-83
2022/05/18 11:12:21;;;;;;;7.85;3.75;;;;;;;28.35;42.87;102047.50;5032669;28;20064;-83
2022/05/18 11:14:58;;;;;;;8.52;4.20;;;;;;;28.27;42.71;102048.97;5044889;28;20426;-83
2022/05/18 11:17:35;;;;;;;6.53;4.25;;;;;;;28.27;43.65;102054.28;5029493;28;20026;-83
2022/05/18 11:20:41;;;;;;;7.10;3.88;;;;;;;28.27;42.59;102050.78;5029700;28;20462;-83
2022/05/18 11:23:34;;;;;;;8.38;3.85;;;;;;;28.01;43.90;102051.94;5029161;28;20541;-83
2022/05/18 11:26:15;;;;;;;8.02;3.42;;;;;;;27.89;44.81;102043.94;5029486;28;20030;-83
2022/05/18 11:28:57;;;;;;;7.50;3.67;;;;;;;27.82;45.85;102040.06;5029436;28;20025;-83
2022/05/18 11:31:41;;;;;;;6.90;3.70;;;;;;;28.01;44.73;102039.47;5029281;28;20041;-83
2022/05/18 11:34:25;;;;;;;7.40;3.60;;;;;;;28.04;45.13;102038.38;5017167;28;20021;-83
2022/05/18 11:36:59;;;;;;;7.43;3.65;;;;;;;28.10;45.18;102041.41;5028755;28;20040;-83
2022/05/18 11:39:38;;;;;;;7.95;4.03;;;;;;;28.19;43.67;102039.84;5028971;28;20060;-83
2022/05/18 11:42:43;;;;;;;5.00;3.72;;;;;;;28.25;45.07;102031.41;5029019;28;20033;-83
2022/05/18 11:45:37;;;;;;;8.02;4.22;;;;;;;28.09;43.09;102033.53;5029262;28;20025;-83